Time;durP1;ratioP1;P1;durP2;ratioP2;P2;SDS_P1;SDS_P2;PMS_P1;PMS_P2;Temp;Humidity;BMP_temperature;BMP_pressure;BME280_temperature;BME280_humidity;BME280_pressure;Samples;Min_cycle;Max_cycle;Signal;HPM_P1;HPM_P2
2021/03/10 00:00:47;;;;;;;12.23;7.13;;;3.40;96.30;;;;;;5104527;28;20055;-79
2021/03/10 00:03:14;;;;;;;11.33;8.07;;;3.30;96.30;;;;;;5053024;28;20031;-79
2021/03/10 00:05:40;;;;;;;11.47;8.00;;;3.30;96.30;;;;;;5055723;28;20043;-79
2021/03/10 00:08:07;;;;;;;15.40;9.70;;;3.30;96.40;;;;;;5104362;28;20040;-79
2021/03/10 00:10:33;;;;;;;12.57;7.43;;;3.20;96.30;;;;;;5070446;28;20101;-79
2021/03/10 00:13:00;;;;;;;14.67;9.63;;;3.10;96.40;;;;;;5086610;28;20050;-79
2021/03/10 00:15:27;;;;;;;14.60;9.60;;;3.10;96.40;;;;;;5070935;28;20063;-80
2021/03/10 00:17:53;;;;;;;15.53;9.77;;;3.00;96.40;;;;;;5054173;28;20039;-79
2021/03/10 00:20:20;;;;;;;14.70;9.03;;;3.00;96.50;;;;;;5067875;28;20044;-81
2021/03/10 00:22:46;;;;;;;9.63;5.80;;;2.90;96.50;;;;;;5053383;28;20490;-79
2021/03/10 00:25:13;;;;;;;13.33;7.47;;;2.90;96.50;;;;;;5070303;28;20395;-79
2021/03/10 00:27:40;;;;;;;13.10;8.40;;;2.90;96.50;;;;;;5052150;28;20039;-79
2021/03/10 00:30:09;;;;;;;15.83;9.03;;;2.80;96.50;;;;;;5072201;28;21191;-79
2021/03/10 00:32:37;;;;;;;14.93;8.47;;;2.80;96.80;;;;;;5070672;28;20406;-80
2021/03/10 00:35:04;;;;;;;15.73;9.70;;;2.80;96.60;;;;;;5104150;28;20433;-80
2021/03/10 00:37:31;;;;;;;17.60;11.80;;;2.90;96.70;;;;;;5054302;28;20047;-80
2021/03/10 00:39:58;;;;;;;17.47;11.07;;;3.00;96.70;;;;;;5059360;28;20051;-80
2021/03/10 00:42:24;;;;;;;16.90;11.03;;;3.10;96.70;;;;;;5078473;28;20042;-80
2021/03/10 00:44:51;;;;;;;15.83;10.00;;;3.20;96.70;;;;;;5110189;28;20565;-80
2021/03/10 00:47:17;;;;;;;13.03;8.87;;;3.30;96.70;;;;;;5079113;28;20043;-80
2021/03/10 00:49:44;;;;;;;17.10;10.37;;;3.40;96.70;;;;;;5053926;28;20059;-79
2021/03/10 00:52:11;;;;;;;16.27;10.67;;;3.50;96.60;;;;;;5107849;28;20044;-79
2021/03/10 00:54:39;;;;;;;13.67;9.67;;;3.60;96.60;;;;;;5072040;28;20054;-79
2021/03/10 00:57:06;;;;;;;16.73;10.53;;;3.70;96.60;;;;;;5089599;28;20040;-80
2021/03/10 00:59:32;;;;;;;14.80;9.93;;;3.80;96.60;;;;;;5070856;28;20039;-81
2021/03/10 01:01:59;;;;;;;14.77;9.77;;;3.80;96.50;;;;;;5108789;28;20035;-81
2021/03/10 01:04:26;;;;;;;42.00;25.93;;;3.90;96.40;;;;;;5057509;28;20044;-81
2021/03/10 01:06:52;;;;;;;27.57;17.17;;;3.80;96.30;;;;;;5055519;28;20488;-81
2021/03/10 01:09:19;;;;;;;21.23;14.00;;;3.80;96.30;;;;;;5089379;28;20040;-81
2021/03/10 01:11:46;;;;;;;19.97;12.27;;;3.70;96.40;;;;;;5090760;28;20402;-80
2021/03/10 01:14:14;;;;;;;17.87;12.07;;;3.50;96.40;;;;;;5089046;28;20051;-79
2021/03/10 01:16:41;;;;;;;15.60;10.57;;;3.50;96.50;;;;;;5104444;28;20054;-79
2021/03/10 01:19:08;;;;;;;16.63;10.87;;;3.40;96.60;;;;;;5054927;28;20047;-79
2021/03/10 01:21:34;;;;;;;16.43;11.27;;;3.30;96.60;;;;;;5106826;28;20044;-80
2021/03/10 01:24:01;;;;;;;16.57;10.60;;;3.20;96.70;;;;;;5097193;28;20048;-79
2021/03/10 01:26:28;;;;;;;15.67;9.97;;;3.20;96.80;;;;;;5087411;28;20422;-79
2021/03/10 01:28:54;;;;;;;14.20;9.33;;;3.10;96.70;;;;;;5104886;28;20062;-79
2021/03/10 01:31:21;;;;;;;21.90;10.83;;;3.10;96.80;;;;;;5039751;28;20031;-79
2021/03/10 01:33:47;;;;;;;14.97;10.13;;;3.00;96.80;;;;;;5108292;28;20070;-79
2021/03/10 01:36:14;;;;;;;15.00;9.20;;;3.00;96.90;;;;;;5089922;28;20051;-80
2021/03/10 01:38:41;;;;;;;14.57;9.67;;;2.90;96.90;;;;;;5071405;28;20386;-79
2021/03/10 01:41:07;;;;;;;16.37;10.37;;;2.90;96.90;;;;;;5056567;28;20036;-79
2021/03/10 01:43:34;;;;;;;15.00;9.77;;;2.80;96.90;;;;;;5072258;28;20040;-77
2021/03/10 01:46:00;;;;;;;14.20;8.73;;;2.80;96.90;;;;;;5088338;28;20032;-81
2021/03/10 01:48:27;;;;;;;13.93;8.97;;;2.80;97.00;;;;;;5043844;28;20471;-82
2021/03/10 01:50:54;;;;;;;11.87;7.00;;;2.70;97.00;;;;;;5086134;28;20040;-79
2021/03/10 01:53:21;;;;;;;15.77;9.10;;;2.70;97.00;;;;;;5067947;28;20677;-79
2021/03/10 01:55:49;;;;;;;14.03;8.10;;;2.70;97.00;;;;;;5069153;28;20044;-79
2021/03/10 01:58:15;;;;;;;19.50;12.60;;;2.70;97.00;;;;;;5068873;28;20923;-79
2021/03/10 02:00:42;;;;;;;17.17;11.17;;;2.60;97.00;;;;;;5076412;28;20036;-78
2021/03/10 02:03:08;;;;;;;14.50;9.17;;;2.60;97.10;;;;;;5068820;28;20482;-78
2021/03/10 02:05:35;;;;;;;13.90;8.93;;;2.60;97.10;;;;;;5087971;28;20050;-78
2021/03/10 02:08:22;;;;;;;16.87;9.70;;;2.60;97.10;;;;;;5073127;28;20056;-78
2021/03/10 02:11:14;;;;;;;14.30;9.37;;;2.60;97.10;;;;;;5105197;28;20044;-78
2021/03/10 02:14:05;;;;;;;11.02;8.40;;;2.60;97.10;;;;;;5088048;28;20048;-78
2021/03/10 02:16:39;;;;;;;19.07;11.10;;;2.50;97.10;;;;;;5087516;28;20043;-79
2021/03/10 02:19:27;;;;;;;16.33;10.20;;;2.50;97.10;;;;;;5073721;28;20062;-80
2021/03/10 02:22:36;;;;;;;15.53;10.03;;;2.50;97.10;;;;;;5089208;28;20047;-80
2021/03/10 02:25:25;;;;;;;15.53;10.40;;;2.50;97.10;;;;;;5024018;28;20040;-80
2021/03/10 02:27:57;;;;;;;17.30;10.93;;;2.50;97.10;;;;;;5077539;28;20052;-79
2021/03/10 02:30:28;;;;;;;16.75;10.40;;;2.50;97.10;;;;;;5080411;28;20070;-79
2021/03/10 02:32:56;;;;;;;15.47;9.97;;;2.50;97.10;;;;;;5106642;28;20059;-79
2021/03/10 02:35:24;;;;;;;11.60;8.13;;;2.50;97.10;;;;;;5105344;28;20054;-80
2021/03/10 02:37:55;;;;;;;18.47;11.57;;;2.40;97.10;;;;;;5068516;28;20046;-80
2021/03/10 02:40:25;;;;;;;19.67;11.43;;;2.40;97.20;;;;;;5074179;28;20039;-78
2021/03/10 02:42:52;;;;;;;17.23;11.13;;;2.40;97.20;;;;;;5069759;28;20038;-78
2021/03/10 02:45:23;;;;;;;15.10;10.20;;;2.40;97.20;;;;;;5074277;28;20051;-78
2021/03/10 02:47:50;;;;;;;19.63;11.83;;;2.40;97.20;;;;;;5092966;28;20582;-79
2021/03/10 02:50:17;;;;;;;17.43;11.87;;;2.40;97.30;;;;;;5106647;28;20058;-78
2021/03/10 02:52:44;;;;;;;18.50;11.67;;;2.40;97.30;;;;;;5111838;28;20045;-78
2021/03/10 02:55:11;;;;;;;22.03;13.03;;;2.40;97.30;;;;;;5089473;28;20379;-78
2021/03/10 02:57:39;;;;;;;19.67;12.93;;;2.50;97.30;;;;;;5083267;28;20052;-78
2021/03/10 03:00:17;;;;;;;21.20;12.50;;;2.50;97.30;;;;;;5052033;28;20047;-78
2021/03/10 03:02:43;;;;;;;18.53;11.27;;;2.50;97.30;;;;;;5085217;28;20043;-79
2021/03/10 03:05:11;;;;;;;19.47;12.67;;;2.50;97.30;;;;;;5029384;28;20035;-80
2021/03/10 03:07:49;;;;;;;19.20;12.33;;;2.60;97.20;;;;;;5060024;28;20698;-77
2021/03/10 03:10:22;;;;;;;19.80;11.87;;;2.60;97.20;;;;;;5064814;28;20047;-78
2021/03/10 03:12:50;;;;;;;25.17;13.60;;;2.60;97.20;;;;;;5048979;28;20383;-77
2021/03/10 03:15:22;;;;;;;21.37;12.90;;;2.70;97.30;;;;;;5064882;28;20135;-78
2021/03/10 03:17:49;;;;;;;21.50;13.60;;;2.80;97.20;;;;;;5064362;28;20029;-78
2021/03/10 03:20:18;;;;;;;24.13;14.67;;;2.80;97.20;;;;;;5034224;28;20399;-77
2021/03/10 03:22:53;;;;;;;22.87;14.27;;;2.80;97.20;;;;;;5063908;28;20463;-78
2021/03/10 03:25:23;;;;;;;21.57;13.43;;;2.90;97.20;;;;;;5033562;28;20032;-77
2021/03/10 03:27:56;;;;;;;21.97;14.50;;;2.90;97.10;;;;;;5027292;28;20045;-78
2021/03/10 03:30:25;;;;;;;21.00;13.83;;;3.00;97.10;;;;;;5064646;28;20044;-78
2021/03/10 03:32:54;;;;;;;26.33;15.43;;;3.00;97.10;;;;;;5050807;28;20043;-77
2021/03/10 03:35:22;;;;;;;21.17;13.67;;;3.10;97.10;;;;;;5034619;28;20083;-78
2021/03/10 03:37:51;;;;;;;20.77;12.83;;;3.10;97.10;;;;;;5064069;28;20684;-78
2021/03/10 03:40:22;;;;;;;21.83;14.10;;;3.10;97.10;;;;;;5066381;28;20053;-77
2021/03/10 03:42:48;;;;;;;23.53;14.57;;;3.20;97.20;;;;;;5070568;28;20063;-78
2021/03/10 03:45:17;;;;;;;20.87;13.80;;;3.20;97.20;;;;;;5069586;28;20044;-79
2021/03/10 03:47:48;;;;;;;19.00;12.27;;;3.30;97.20;;;;;;5067358;28;20391;-78
2021/03/10 03:50:15;;;;;;;20.73;13.17;;;3.30;97.20;;;;;;5052189;28;20048;-78
2021/03/10 03:52:43;;;;;;;22.73;13.90;;;3.40;97.10;;;;;;5032164;28;20050;-78
2021/03/10 03:55:10;;;;;;;23.70;13.83;;;3.40;97.10;;;;;;5039691;28;20043;-78
2021/03/10 03:57:38;;;;;;;25.67;15.70;;;3.50;97.10;;;;;;5048935;28;20048;-78
2021/03/10 04:00:07;;;;;;;23.13;14.37;;;3.50;97.10;;;;;;5045286;28;20064;-78
2021/03/10 04:02:39;;;;;;;23.10;14.03;;;3.60;97.10;;;;;;5059898;28;20045;-80
2021/03/10 04:05:07;;;;;;;26.67;16.83;;;3.60;97.00;;;;;;5062569;28;20044;-80
2021/03/10 04:07:45;;;;;;;25.50;16.80;;;3.60;97.00;;;;;;5044250;28;20333;-80
2021/03/10 04:10:12;;;;;;;27.97;17.40;;;3.70;97.00;;;;;;5044838;28;20415;-80
2021/03/10 04:12:38;;;;;;;26.53;16.00;;;3.70;97.00;;;;;;5043876;28;20044;-79
2021/03/10 04:15:05;;;;;;;26.27;17.10;;;3.70;97.00;;;;;;5062178;28;20040;-81
2021/03/10 04:17:31;;;;;;;26.43;16.90;;;3.70;97.00;;;;;;5059369;28;20128;-80
2021/03/10 04:19:58;;;;;;;28.93;16.80;;;3.70;97.00;;;;;;4998278;28;20055;-80
2021/03/10 04:22:24;;;;;;;25.53;16.27;;;3.80;97.00;;;;;;4996300;28;20044;-80
2021/03/10 04:24:51;;;;;;;29.07;16.67;;;3.80;97.00;;;;;;5013598;28;20048;-80
2021/03/10 04:27:18;;;;;;;26.77;15.67;;;3.80;96.90;;;;;;5053883;28;20588;-79
2021/03/10 04:29:45;;;;;;;27.33;17.03;;;3.80;96.90;;;;;;5051694;28;20037;-79
2021/03/10 04:32:11;;;;;;;29.10;16.97;;;3.80;96.90;;;;;;5013388;28;20692;-79
2021/03/10 04:34:38;;;;;;;27.47;16.50;;;3.80;96.90;;;;;;5053169;28;20041;-80
2021/03/10 04:37:04;;;;;;;27.07;17.53;;;3.80;96.90;;;;;;5049861;28;20044;-83
2021/03/10 04:39:31;;;;;;;27.33;16.47;;;3.80;96.90;;;;;;4996543;28;20523;-79
2021/03/10 04:41:58;;;;;;;24.37;16.37;;;3.80;96.90;;;;;;5051744;28;20048;-79
2021/03/10 04:44:24;;;;;;;22.63;14.97;;;3.80;96.90;;;;;;5034094;28;20045;-79
2021/03/10 04:46:50;;;;;;;28.37;16.63;;;3.70;96.90;;;;;;5051402;28;20071;-79
2021/03/10 04:49:17;;;;;;;27.30;17.27;;;3.70;96.90;;;;;;5029453;28;20056;-79
2021/03/10 04:51:43;;;;;;;25.53;15.63;;;3.70;97.00;;;;;;5033315;28;20742;-79
2021/03/10 04:54:10;;;;;;;26.00;15.70;;;3.70;97.10;;;;;;5030393;28;20491;-79
2021/03/10 04:56:36;;;;;;;24.17;15.13;;;3.80;97.10;;;;;;5029412;28;20068;-79
2021/03/10 04:59:03;;;;;;;25.87;15.30;;;3.80;97.10;;;;;;5013764;28;20036;-79
2021/03/10 05:01:29;;;;;;;23.03;15.07;;;3.80;97.10;;;;;;5048784;28;20044;-79
2021/03/10 05:03:58;;;;;;;24.80;15.60;;;3.90;97.10;;;;;;5030740;28;20048;-79
2021/03/10 05:06:24;;;;;;;23.73;14.93;;;3.90;97.10;;;;;;5047308;28;20625;-79
2021/03/10 05:08:51;;;;;;;27.23;15.33;;;3.90;97.00;;;;;;5048610;28;20048;-79
2021/03/10 05:11:17;;;;;;;25.93;15.37;;;4.00;97.00;;;;;;5045632;28;20037;-80
2021/03/10 05:13:44;;;;;;;26.83;16.60;;;4.00;97.00;;;;;;5013434;28;20052;-80
2021/03/10 05:16:11;;;;;;;26.70;16.90;;;4.00;97.00;;;;;;4997876;28;20041;-80
2021/03/10 05:18:37;;;;;;;25.73;16.43;;;4.00;97.00;;;;;;4981417;28;20045;-80
2021/03/10 05:21:04;;;;;;;23.70;14.80;;;4.00;97.00;;;;;;5032352;28;20040;-80
2021/03/10 05:23:31;;;;;;;30.47;18.60;;;4.00;97.00;;;;;;5027633;28;20049;-80
2021/03/10 05:25:57;;;;;;;27.97;17.50;;;4.00;97.20;;;;;;4997507;28;20036;-79
2021/03/10 05:28:24;;;;;;;25.47;16.37;;;4.00;97.00;;;;;;5027443;28;20046;-80
2021/03/10 05:30:51;;;;;;;28.07;18.00;;;4.00;97.00;;;;;;5027189;28;20033;-80
2021/03/10 05:33:17;;;;;;;24.33;15.63;;;4.00;97.00;;;;;;5031210;28;20522;-80
2021/03/10 05:35:44;;;;;;;30.37;17.80;;;3.90;97.00;;;;;;5015445;28;20037;-80
2021/03/10 05:38:10;;;;;;;28.20;17.30;;;3.90;97.00;;;;;;4998359;28;20503;-79
2021/03/10 05:40:37;;;;;;;26.33;16.60;;;3.80;97.00;;;;;;5029775;28;21409;-79
2021/03/10 05:43:03;;;;;;;31.80;17.73;;;3.90;97.10;;;;;;5045553;28;20388;-79
2021/03/10 05:45:30;;;;;;;28.30;18.00;;;3.90;97.10;;;;;;5046401;28;20033;-79
2021/03/10 05:47:57;;;;;;;26.57;17.27;;;3.90;97.10;;;;;;5028436;28;20045;-79
2021/03/10 05:50:23;;;;;;;25.20;17.03;;;3.80;97.10;;;;;;5047364;28;21144;-79
2021/03/10 05:52:52;;;;;;;28.03;17.83;;;3.80;97.20;;;;;;5047551;28;20416;-79
2021/03/10 05:55:21;;;;;;;27.43;16.43;;;3.80;97.20;;;;;;5028958;28;20029;-79
2021/03/10 05:57:48;;;;;;;25.57;16.90;;;3.80;97.20;;;;;;5027016;28;20025;-79
2021/03/10 06:00:16;;;;;;;28.40;16.70;;;3.90;97.20;;;;;;5038505;28;20031;-79
2021/03/10 06:02:43;;;;;;;26.90;17.07;;;3.90;97.20;;;;;;5050410;28;20060;-78
2021/03/10 06:05:19;;;;;;;24.40;16.00;;;3.90;97.30;;;;;;5037563;28;20049;-78
2021/03/10 06:07:46;;;;;;;21.97;14.67;;;3.90;97.30;;;;;;5043615;28;20049;-78
2021/03/10 06:10:14;;;;;;;26.37;16.37;;;4.00;97.30;;;;;;5045647;28;20069;-78
2021/03/10 06:12:42;;;;;;;25.07;15.13;;;4.00;97.30;;;;;;5046266;28;20037;-78
2021/03/10 06:15:10;;;;;;;23.90;15.30;;;4.00;97.30;;;;;;5032314;28;20036;-78
2021/03/10 06:17:40;;;;;;;25.90;16.60;;;4.00;97.30;;;;;;5054138;28;20051;-78
2021/03/10 06:20:07;;;;;;;26.57;15.07;;;4.00;97.20;;;;;;5053659;28;20820;-78
2021/03/10 06:22:35;;;;;;;27.20;17.17;;;4.10;97.30;;;;;;5027860;28;20060;-78
2021/03/10 06:25:03;;;;;;;28.30;17.40;;;4.10;97.20;;;;;;5052136;28;20036;-78
2021/03/10 06:27:31;;;;;;;27.00;17.43;;;4.10;97.20;;;;;;5049418;28;20048;-78
2021/03/10 06:29:59;;;;;;;26.57;16.97;;;4.10;97.50;;;;;;5050269;28;20048;-78
2021/03/10 06:32:26;;;;;;;29.47;16.90;;;4.10;97.30;;;;;;5045936;28;20491;-78
2021/03/10 06:34:53;;;;;;;28.13;19.00;;;4.10;97.30;;;;;;5046702;28;20032;-78
2021/03/10 06:37:28;;;;;;;25.70;16.47;;;4.10;97.30;;;;;;5049254;28;20391;-79
2021/03/10 06:40:12;;;;;;;25.80;17.40;;;4.10;97.30;;;;;;5025607;28;20045;-78
2021/03/10 06:42:40;;;;;;;22.60;15.70;;;4.20;97.40;;;;;;5048074;28;20392;-78
2021/03/10 06:45:08;;;;;;;25.63;17.37;;;4.20;97.40;;;;;;5051356;28;20047;-79
2021/03/10 06:47:40;;;;;;;28.67;18.20;;;4.20;97.40;;;;;;5045110;28;20077;-78
2021/03/10 06:50:10;;;;;;;29.60;19.67;;;4.20;97.40;;;;;;5012947;28;20045;-78
2021/03/10 06:52:38;;;;;;;23.80;15.60;;;4.30;97.40;;;;;;5028529;28;20049;-78
2021/03/10 06:55:05;;;;;;;31.63;21.50;;;4.30;97.40;;;;;;5028742;28;20044;-78
2021/03/10 06:57:42;;;;;;;25.77;18.63;;;4.30;97.40;;;;;;5045323;28;20048;-78
2021/03/10 07:00:23;;;;;;;28.00;19.13;;;4.30;97.40;;;;;;5013426;28;20049;-78
2021/03/10 07:02:50;;;;;;;26.50;17.13;;;4.40;97.50;;;;;;5028737;28;20033;-78
2021/03/10 07:05:17;;;;;;;26.03;18.30;;;4.40;97.40;;;;;;5044619;28;20060;-77
2021/03/10 07:07:46;;;;;;;31.97;20.87;;;4.40;97.40;;;;;;5037474;28;20806;-78
2021/03/10 07:10:13;;;;;;;30.07;19.40;;;4.50;97.40;;;;;;5026767;28;20033;-78
2021/03/10 07:12:40;;;;;;;32.43;21.50;;;4.50;97.40;;;;;;5030383;28;20467;-77
2021/03/10 07:15:07;;;;;;;30.53;19.37;;;4.50;97.40;;;;;;5048692;28;20025;-78
2021/03/10 07:17:35;;;;;;;30.47;19.93;;;4.60;97.50;;;;;;5028259;28;20056;-79
2021/03/10 07:20:01;;;;;;;30.43;19.10;;;4.60;97.50;;;;;;5027692;28;20049;-78
2021/03/10 07:22:36;;;;;;;27.07;17.83;;;4.70;97.50;;;;;;5044250;28;20056;-79
2021/03/10 07:25:15;;;;;;;24.60;15.03;;;4.70;97.50;;;;;;5050915;28;20032;-80
2021/03/10 07:27:46;;;;;;;30.40;19.03;;;4.70;97.50;;;;;;5033570;28;20825;-79
2021/03/10 07:30:13;;;;;;;30.37;19.00;;;4.80;97.50;;;;;;5028373;28;20029;-81
2021/03/10 07:32:40;;;;;;;24.67;15.57;;;4.80;97.50;;;;;;5031105;28;20369;-81
2021/03/10 07:35:08;;;;;;;30.07;19.60;;;4.90;97.50;;;;;;5029044;28;20049;-81
2021/03/10 07:37:37;;;;;;;36.50;21.30;;;5.00;97.50;;;;;;5016926;28;20040;-79
2021/03/10 07:40:15;;;;;;;35.97;22.70;;;5.00;97.50;;;;;;5030210;28;20041;-79
2021/03/10 07:42:56;;;;;;;40.00;23.80;;;5.10;97.50;;;;;;5026277;28;20488;-79
2021/03/10 07:45:27;;;;;;;39.80;24.50;;;5.10;97.50;;;;;;5028481;28;20053;-81
2021/03/10 07:47:58;;;;;;;40.33;23.43;;;5.20;97.50;;;;;;5025878;28;20041;-78
2021/03/10 07:50:40;;;;;;;38.07;24.83;;;5.30;97.50;;;;;;5024389;28;20042;-78
2021/03/10 07:53:07;;;;;;;40.70;24.52;;;5.30;97.50;;;;;;5022687;28;20806;-78
2021/03/10 07:55:44;;;;;;;35.67;21.80;;;5.40;97.80;;;;;;5035462;28;20028;-78
2021/03/10 07:58:12;;;;;;;46.63;27.37;;;5.50;97.50;;;;;;5044097;28;20303;-78
2021/03/10 08:00:40;;;;;;;46.60;27.35;;;5.50;97.50;;;;;;5055389;28;20052;-78
2021/03/10 08:03:06;;;;;;;44.33;25.30;;;5.60;97.50;;;;;;5045689;28;20368;-78
2021/03/10 08:05:35;;;;;;;46.15;27.77;;;5.60;97.50;;;;;;5031098;28;20044;-79
2021/03/10 08:08:14;;;;;;;50.13;30.27;;;5.70;97.50;;;;;;5045994;28;20045;-79
2021/03/10 08:10:41;;;;;;;61.65;32.33;;;5.70;97.50;;;;;;5051459;28;20057;-78
2021/03/10 08:13:18;;;;;;;62.72;35.90;;;5.80;97.60;;;;;;4988803;28;20820;-78
2021/03/10 08:15:59;;;;;;;62.10;36.92;;;5.80;97.80;;;;;;5048327;28;20021;-79
2021/03/10 08:18:27;;;;;;;69.40;38.72;;;5.90;97.50;;;;;;5047808;28;20032;-79
2021/03/10 08:20:54;;;;;;;58.60;32.47;;;6.00;97.50;;;;;;5045647;28;20064;-78
2021/03/10 08:23:27;;;;;;;61.97;37.07;;;6.10;97.50;;;;;;5045449;28;20033;-78
2021/03/10 08:25:54;;;;;;;73.90;44.08;;;6.10;97.50;;;;;;5044477;28;20044;-78
2021/03/10 08:28:21;;;;;;;74.07;42.30;;;6.20;97.40;;;;;;5051483;28;20060;-79
2021/03/10 08:30:47;;;;;;;77.75;43.25;;;6.20;97.40;;;;;;5030334;28;20045;-79
2021/03/10 08:33:14;;;;;;;70.15;42.85;;;6.30;97.40;;;;;;5029110;28;20051;-77
2021/03/10 08:35:49;;;;;;;64.90;39.08;;;6.30;97.30;;;;;;5027417;28;20048;-78
2021/03/10 08:38:16;;;;;;;63.03;37.17;;;6.40;97.40;;;;;;5044236;28;20037;-78
2021/03/10 08:40:42;;;;;;;68.28;40.20;;;6.50;97.40;;;;;;5041549;28;20040;-79
2021/03/10 08:43:19;;;;;;;73.05;42.35;;;6.50;97.30;;;;;;5024863;28;20036;-78
2021/03/10 08:45:46;;;;;;;61.97;38.72;;;6.50;97.30;;;;;;5047901;28;20041;-79
2021/03/10 08:48:14;;;;;;;65.93;36.20;;;6.60;97.30;;;;;;5062219;28;20036;-79
2021/03/10 08:50:42;;;;;;;68.47;41.17;;;6.70;97.30;;;;;;5027019;28;20049;-78
2021/03/10 08:53:14;;;;;;;66.95;41.00;;;6.70;97.20;;;;;;5034953;28;20127;-78
2021/03/10 08:55:44;;;;;;;67.73;40.77;;;6.70;97.20;;;;;;5041677;28;20044;-79
2021/03/10 08:58:15;;;;;;;63.42;38.90;;;6.80;97.20;;;;;;5053922;28;20060;-79
2021/03/10 09:00:43;;;;;;;56.90;35.75;;;6.90;97.20;;;;;;5053812;28;20041;-79
2021/03/10 09:03:13;;;;;;;60.90;37.25;;;6.90;97.10;;;;;;5019821;28;20048;-79
2021/03/10 09:05:45;;;;;;;68.53;41.63;;;7.00;97.10;;;;;;5035389;28;20040;-79
2021/03/10 09:08:16;;;;;;;70.35;41.22;;;7.10;97.10;;;;;;5051328;28;20045;-78
2021/03/10 09:10:53;;;;;;;63.85;40.03;;;7.20;97.00;;;;;;5051309;28;20032;-78
2021/03/10 09:13:40;;;;;;;66.43;41.00;;;7.20;96.90;;;;;;5043558;28;20053;-79
2021/03/10 09:16:09;;;;;;;65.03;38.38;;;7.30;96.70;;;;;;5029861;28;20408;-79
2021/03/10 09:18:38;;;;;;;66.85;41.92;;;7.30;96.70;;;;;;5016546;28;20036;-79
2021/03/10 09:21:05;;;;;;;71.43;42.10;;;7.30;96.70;;;;;;5033104;28;20056;-79
2021/03/10 09:23:38;;;;;;;60.63;38.53;;;7.40;96.60;;;;;;5013636;28;20048;-78
2021/03/10 09:26:07;;;;;;;62.35;39.40;;;7.50;96.60;;;;;;5031923;28;20832;-78
2021/03/10 09:28:40;;;;;;;65.77;39.70;;;7.50;96.40;;;;;;4995979;28;20068;-79
2021/03/10 09:31:29;;;;;;;61.35;40.70;;;7.60;96.30;;;;;;5043807;28;20827;-78
2021/03/10 09:34:06;;;;;;;57.25;37.15;;;7.70;96.30;;;;;;5030785;28;20029;-78
2021/03/10 09:36:42;;;;;;;60.88;37.10;;;7.70;96.10;;;;;;5028364;28;20044;-82
2021/03/10 09:39:22;;;;;;;62.97;38.42;;;7.80;96.10;;;;;;5003061;28;20041;-82
2021/03/10 09:41:58;;;;;;;54.80;35.95;;;7.90;96.00;;;;;;5033167;28;20056;-80
2021/03/10 09:44:51;;;;;;;62.70;38.15;;;7.90;96.00;;;;;;5049857;28;20037;-81
2021/03/10 09:47:25;;;;;;;52.58;33.92;;;8.00;95.90;;;;;;5015009;28;20047;-83
2021/03/10 09:49:58;;;;;;;65.10;40.58;;;8.10;96.00;;;;;;5028232;28;20033;-83
2021/03/10 09:52:39;;;;;;;60.92;40.15;;;8.10;95.30;;;;;;5010747;28;20506;-82
2021/03/10 09:55:19;;;;;;;60.58;39.47;;;8.10;95.30;;;;;;5018837;28;20049;-81
2021/03/10 09:58:03;;;;;;;56.88;36.63;;;8.10;95.20;;;;;;5028219;28;20409;-80
2021/03/10 10:00:34;;;;;;;51.33;34.63;;;8.20;95.30;;;;;;5010843;28;20032;-80
2021/03/10 10:03:01;;;;;;;53.30;35.15;;;8.20;95.30;;;;;;5041423;28;20376;-81
2021/03/10 10:05:34;;;;;;;55.42;36.47;;;8.20;95.20;;;;;;5018591;28;20037;-81
2021/03/10 10:08:07;;;;;;;54.42;36.00;;;8.30;95.00;;;;;;5044542;28;20045;-81
2021/03/10 10:10:36;;;;;;;57.42;37.30;;;8.30;95.00;;;;;;5047101;28;20387;-81
2021/03/10 10:13:04;;;;;;;55.95;38.00;;;8.40;95.00;;;;;;5016091;28;20384;-77
2021/03/10 10:15:40;;;;;;;51.70;36.17;;;8.40;94.90;;;;;;5050368;28;21513;-80
2021/03/10 10:18:10;;;;;;;49.72;34.30;;;8.40;94.60;;;;;;4987648;28;20049;-80
2021/03/10 10:20:44;;;;;;;52.95;32.97;;;8.50;94.60;;;;;;5026880;28;20047;-79
2021/03/10 10:23:15;;;;;;;49.95;32.92;;;8.50;94.60;;;;;;5044671;28;21091;-80
2021/03/10 10:25:54;;;;;;;49.22;33.58;;;8.50;94.60;;;;;;5010160;28;20056;-80
2021/03/10 10:28:24;;;;;;;46.33;32.28;;;8.50;94.60;;;;;;5026084;28;20037;-80
2021/03/10 10:30:56;;;;;;;46.85;30.48;;;8.60;94.40;;;;;;5032665;28;20448;-80
2021/03/10 10:33:26;;;;;;;45.13;31.60;;;8.60;94.40;;;;;;5017226;28;20257;-80
2021/03/10 10:35:54;;;;;;;46.45;32.38;;;8.60;94.40;;;;;;5015480;28;20487;-80
2021/03/10 10:38:21;;;;;;;48.90;32.95;;;8.70;94.30;;;;;;5029951;28;20055;-80
2021/03/10 10:40:48;;;;;;;47.15;33.10;;;8.80;94.50;;;;;;5030617;28;20049;-81
2021/03/10 10:43:19;;;;;;;46.92;33.22;;;8.80;94.20;;;;;;5014054;28;20060;-80
2021/03/10 10:45:49;;;;;;;49.35;33.95;;;8.90;93.90;;;;;;5002804;28;20088;-80
2021/03/10 10:48:20;;;;;;;42.22;31.27;;;9.00;93.80;;;;;;5030359;28;20056;-80
2021/03/10 10:50:55;;;;;;;42.42;28.45;;;9.10;93.60;;;;;;4998341;28;20037;-80
2021/03/10 10:53:27;;;;;;;41.67;28.05;;;9.10;93.60;;;;;;5044318;28;20829;-81
2021/03/10 10:55:55;;;;;;;44.75;30.15;;;9.20;93.60;;;;;;5013710;28;20044;-81
2021/03/10 10:58:22;;;;;;;43.85;31.45;;;9.30;93.70;;;;;;5016418;28;20045;-80
2021/03/10 11:00:49;;;;;;;45.30;31.63;;;9.40;93.10;;;;;;5014685;28;20036;-80
2021/03/10 11:03:16;;;;;;;44.55;30.08;;;9.40;92.80;;;;;;5014589;28;20053;-81
2021/03/10 11:05:49;;;;;;;42.60;29.00;;;9.40;92.70;;;;;;5032118;28;20036;-81
2021/03/10 11:08:18;;;;;;;42.35;29.65;;;9.40;92.80;;;;;;4998985;28;20045;-82
2021/03/10 11:10:46;;;;;;;38.13;27.83;;;9.40;92.60;;;;;;5010301;28;20037;-82
2021/03/10 11:13:13;;;;;;;39.03;27.58;;;9.40;92.50;;;;;;5047124;28;20033;-80
2021/03/10 11:15:53;;;;;;;42.03;28.15;;;9.40;92.10;;;;;;5031545;28;20037;-81
2021/03/10 11:18:38;;;;;;;32.83;24.73;;;9.40;92.20;;;;;;5044030;28;20175;-82
2021/03/10 11:21:05;;;;;;;36.22;26.02;;;9.40;92.40;;;;;;5010799;28;20179;-81
2021/03/10 11:23:33;;;;;;;38.13;26.55;;;9.40;92.40;;;;;;5031032;28;20365;-81
2021/03/10 11:26:01;;;;;;;37.25;25.08;;;9.40;92.20;;;;;;5031254;28;20045;-80
2021/03/10 11:28:29;;;;;;;34.88;24.35;;;9.50;92.10;;;;;;5013819;28;20041;-81
2021/03/10 11:30:57;;;;;;;30.10;22.23;;;9.40;91.80;;;;;;5032560;28;20050;-81
2021/03/10 11:33:25;;;;;;;34.15;23.23;;;9.50;92.00;;;;;;5032870;28;20515;-81
2021/03/10 11:35:53;;;;;;;32.30;22.98;;;9.50;91.90;;;;;;5030420;28;20041;-82
2021/03/10 11:38:20;;;;;;;28.92;20.90;;;9.50;91.40;;;;;;5032705;28;20044;-79
2021/03/10 11:40:49;;;;;;;28.00;21.17;;;9.50;91.40;;;;;;5026305;28;20042;-81
2021/03/10 11:43:17;;;;;;;26.58;20.05;;;9.50;91.20;;;;;;5012527;28;20056;-82
2021/03/10 11:45:43;;;;;;;36.85;22.88;;;9.60;91.50;;;;;;5032338;28;20454;-82
2021/03/10 11:48:10;;;;;;;32.97;22.67;;;9.60;91.20;;;;;;5012097;28;20054;-82
2021/03/10 11:50:37;;;;;;;28.35;20.50;;;9.60;90.80;;;;;;5031064;28;20029;-82
2021/03/10 11:53:04;;;;;;;31.38;21.95;;;9.70;90.80;;;;;;5051769;28;20413;-82
2021/03/10 11:55:31;;;;;;;34.38;22.13;;;9.70;90.20;;;;;;5036807;28;20406;-85
2021/03/10 11:57:59;;;;;;;32.90;21.02;;;9.70;90.00;;;;;;5024137;28;20043;-83
2021/03/10 12:00:27;;;;;;;29.83;20.33;;;9.80;90.10;;;;;;5047712;28;20036;-81
2021/03/10 12:03:00;;;;;;;27.13;19.40;;;9.80;90.30;;;;;;5045592;28;20044;-81
2021/03/10 12:05:39;;;;;;;30.90;20.25;;;9.90;90.40;;;;;;5015937;28;20045;-80
2021/03/10 12:08:05;;;;;;;30.00;20.33;;;9.90;90.00;;;;;;4998341;28;20049;-80
2021/03/10 12:10:37;;;;;;;26.45;18.30;;;9.90;89.90;;;;;;5033482;28;20037;-80
2021/03/10 12:13:04;;;;;;;29.63;18.73;;;10.00;90.30;;;;;;4999901;28;20034;-80
2021/03/10 12:15:31;;;;;;;24.95;17.65;;;10.10;90.30;;;;;;5013040;28;20055;-80
2021/03/10 12:17:58;;;;;;;28.40;20.02;;;10.10;90.00;;;;;;5044563;28;20503;-80
2021/03/10 12:20:24;;;;;;;27.95;19.50;;;10.20;89.90;;;;;;5031793;28;20037;-80
2021/03/10 12:22:51;;;;;;;24.98;18.35;;;10.20;88.50;;;;;;5047632;28;20036;-80
2021/03/10 12:25:18;;;;;;;28.15;17.95;;;10.20;87.60;;;;;;5011907;28;20488;-81
2021/03/10 12:27:45;;;;;;;22.98;17.25;;;10.30;87.30;;;;;;5013049;28;20510;-81
2021/03/10 12:30:12;;;;;;;26.70;17.40;;;10.30;87.40;;;;;;5044162;28;20056;-81
2021/03/10 12:32:39;;;;;;;24.05;16.88;;;10.40;87.00;;;;;;4981070;28;20048;-81
2021/03/10 12:35:06;;;;;;;21.88;16.52;;;10.50;86.70;;;;;;5048733;28;20511;-81
2021/03/10 12:37:32;;;;;;;22.33;16.23;;;10.60;86.50;;;;;;5028948;28;20052;-82
2021/03/10 12:40:00;;;;;;;21.63;15.88;;;10.70;86.70;;;;;;4997952;28;20055;-81
2021/03/10 12:42:26;;;;;;;27.45;18.65;;;10.80;86.40;;;;;;5010793;28;20033;-81
2021/03/10 12:44:53;;;;;;;21.45;16.00;;;10.90;85.90;;;;;;5048104;28;20495;-81
2021/03/10 12:47:20;;;;;;;21.50;15.80;;;11.00;85.00;;;;;;5016319;28;20056;-81
2021/03/10 12:49:47;;;;;;;22.98;16.42;;;11.10;85.20;;;;;;5046057;28;20052;-81